sensor_id;sensor_type;location;lat;lon;timestamp;P1;durP1;ratioP1;P2;durP2;ratioP2
64060;SDS011;60147;55.036;73.242;2023-05-14T07:40:45;9.82;;;5.78;;
64060;SDS011;60147;55.036;73.242;2023-05-14T07:43:13;10.55;;;5.80;;
64060;SDS011;60147;55.036;73.242;2023-05-14T07:45:38;11.30;;;5.50;;
64060;SDS011;60147;55.036;73.242;2023-05-14T07:48:23;13.93;;;6.85;;
64060;SDS011;60147;55.036;73.242;2023-05-14T07:50:49;18.65;;;7.30;;
64060;SDS011;60147;55.036;73.242;2023-05-14T07:53:33;21.48;;;8.20;;
64060;SDS011;60147;55.036;73.242;2023-05-14T07:55:59;12.68;;;6.93;;
64060;SDS011;60147;55.036;73.242;2023-05-14T07:58:25;12.68;;;6.60;;
64060;SDS011;60147;55.036;73.242;2023-05-14T08:03:37;16.75;;;6.22;;
64060;SDS011;60147;55.036;73.242;2023-05-14T08:06:21;12.95;;;5.80;;
64060;SDS011;60147;55.036;73.242;2023-05-14T08:08:48;20.35;;;7.55;;
64060;SDS011;60147;55.036;73.242;2023-05-14T08:11:14;26.00;;;8.02;;
64060;SDS011;60147;55.036;73.242;2023-05-14T08:16:43;13.93;;;5.30;;
64060;SDS011;60147;55.036;73.242;2023-05-14T08:19:09;12.55;;;5.13;;
64060;SDS011;60147;55.036;73.242;2023-05-14T08:21:35;14.93;;;5.72;;
64060;SDS011;60147;55.036;73.242;2023-05-14T08:24:01;13.88;;;4.82;;
64060;SDS011;60147;55.036;73.242;2023-05-14T08:26:28;11.98;;;4.90;;
64060;SDS011;60147;55.036;73.242;2023-05-14T08:29:12;8.50;;;4.50;;
64060;SDS011;60147;55.036;73.242;2023-05-14T08:31:38;6.50;;;3.95;;
64060;SDS011;60147;55.036;73.242;2023-05-14T08:34:04;8.02;;;3.45;;
64060;SDS011;60147;55.036;73.242;2023-05-14T08:36:30;7.03;;;3.47;;
64060;SDS011;60147;55.036;73.242;2023-05-14T08:38:57;8.65;;;3.75;;
64060;SDS011;60147;55.036;73.242;2023-05-14T08:41:23;32.95;;;6.93;;
64060;SDS011;60147;55.036;73.242;2023-05-14T08:43:58;20.85;;;6.38;;
64060;SDS011;60147;55.036;73.242;2023-05-14T08:46:44;9.52;;;3.63;;
64060;SDS011;60147;55.036;73.242;2023-05-14T08:49:39;6.22;;;2.90;;
64060;SDS011;60147;55.036;73.242;2023-05-14T08:54:50;9.30;;;4.03;;
64060;SDS011;60147;55.036;73.242;2023-05-14T08:57:18;8.63;;;3.00;;
64060;SDS011;60147;55.036;73.242;2023-05-14T08:59:44;9.65;;;4.13;;
64060;SDS011;60147;55.036;73.242;2023-05-14T09:05:14;18.83;;;10.45;;
64060;SDS011;60147;55.036;73.242;2023-05-14T09:07:41;9.52;;;3.75;;
64060;SDS011;60147;55.036;73.242;2023-05-14T09:10:08;6.00;;;2.95;;
64060;SDS011;60147;55.036;73.242;2023-05-14T09:12:34;4.63;;;2.80;;
64060;SDS011;60147;55.036;73.242;2023-05-14T09:15:00;6.18;;;3.10;;
64060;SDS011;60147;55.036;73.242;2023-05-14T09:17:26;12.95;;;3.22;;
64060;SDS011;60147;55.036;73.242;2023-05-14T09:19:52;7.13;;;3.30;;
64060;SDS011;60147;55.036;73.242;2023-05-14T09:22:37;9.32;;;3.40;;
64060;SDS011;60147;55.036;73.242;2023-05-14T09:25:04;14.00;;;8.52;;
64060;SDS011;60147;55.036;73.242;2023-05-14T09:30:14;95.95;;;47.15;;
64060;SDS011;60147;55.036;73.242;2023-05-14T09:32:41;12.32;;;7.28;;
64060;SDS011;60147;55.036;73.242;2023-05-14T09:35:17;10.23;;;5.27;;
64060;SDS011;60147;55.036;73.242;2023-05-14T09:37:44;14.35;;;7.53;;
64060;SDS011;60147;55.036;73.242;2023-05-14T09:40:11;15.48;;;5.32;;
64060;SDS011;60147;55.036;73.242;2023-05-14T09:42:37;10.57;;;4.90;;
64060;SDS011;60147;55.036;73.242;2023-05-14T09:45:22;13.25;;;4.57;;
64060;SDS011;60147;55.036;73.242;2023-05-14T09:47:47;7.63;;;3.88;;
64060;SDS011;60147;55.036;73.242;2023-05-14T09:50:13;8.95;;;4.07;;
64060;SDS011;60147;55.036;73.242;2023-05-14T09:52:39;8.32;;;4.13;;
64060;SDS011;60147;55.036;73.242;2023-05-14T09:57:50;14.57;;;6.55;;
64060;SDS011;60147;55.036;73.242;2023-05-14T10:00:34;11.73;;;6.28;;
64060;SDS011;60147;55.036;73.242;2023-05-14T10:06:03;7.80;;;4.05;;
64060;SDS011;60147;55.036;73.242;2023-05-14T10:08:32;5.60;;;3.80;;
64060;SDS011;60147;55.036;73.242;2023-05-14T10:10:58;11.70;;;5.38;;
64060;SDS011;60147;55.036;73.242;2023-05-14T10:16:31;27.27;;;11.13;;
64060;SDS011;60147;55.036;73.242;2023-05-14T10:19:09;19.23;;;8.60;;
64060;SDS011;60147;55.036;73.242;2023-05-14T10:21:39;11.73;;;6.03;;
64060;SDS011;60147;55.036;73.242;2023-05-14T10:24:07;9.70;;;4.68;;
64060;SDS011;60147;55.036;73.242;2023-05-14T10:26:51;11.65;;;4.32;;
64060;SDS011;60147;55.036;73.242;2023-05-14T10:29:18;34.28;;;5.93;;
64060;SDS011;60147;55.036;73.242;2023-05-14T10:37:17;14.23;;;6.22;;
64060;SDS011;60147;55.036;73.242;2023-05-14T10:40:01;12.30;;;5.40;;
64060;SDS011;60147;55.036;73.242;2023-05-14T10:42:31;31.88;;;6.95;;
64060;SDS011;60147;55.036;73.242;2023-05-14T10:45:16;22.38;;;4.40;;
64060;SDS011;60147;55.036;73.242;2023-05-14T10:47:43;14.80;;;3.00;;
64060;SDS011;60147;55.036;73.242;2023-05-14T10:50:10;9.27;;;4.38;;
64060;SDS011;60147;55.036;73.242;2023-05-14T10:52:54;11.40;;;4.95;;
64060;SDS011;60147;55.036;73.242;2023-05-14T10:55:40;29.27;;;6.50;;
64060;SDS011;60147;55.036;73.242;2023-05-14T10:58:06;27.02;;;5.32;;
64060;SDS011;60147;55.036;73.242;2023-05-14T11:00:33;17.45;;;4.35;;
64060;SDS011;60147;55.036;73.242;2023-05-14T11:03:18;8.73;;;4.20;;
64060;SDS011;60147;55.036;73.242;2023-05-14T11:05:45;7.75;;;2.45;;
64060;SDS011;60147;55.036;73.242;2023-05-14T11:08:12;9.95;;;3.28;;
64060;SDS011;60147;55.036;73.242;2023-05-14T11:10:38;6.70;;;3.08;;
64060;SDS011;60147;55.036;73.242;2023-05-14T11:13:04;10.90;;;3.20;;
64060;SDS011;60147;55.036;73.242;2023-05-14T11:15:30;5.38;;;2.70;;
64060;SDS011;60147;55.036;73.242;2023-05-14T11:17:56;6.15;;;2.28;;
64060;SDS011;60147;55.036;73.242;2023-05-14T11:20:22;6.70;;;2.00;;
64060;SDS011;60147;55.036;73.242;2023-05-14T11:22:48;11.10;;;4.30;;
64060;SDS011;60147;55.036;73.242;2023-05-14T11:25:16;7.78;;;3.65;;
64060;SDS011;60147;55.036;73.242;2023-05-14T11:27:43;6.53;;;2.40;;
64060;SDS011;60147;55.036;73.242;2023-05-14T11:30:16;8.35;;;3.28;;
64060;SDS011;60147;55.036;73.242;2023-05-14T11:32:43;9.18;;;3.85;;
64060;SDS011;60147;55.036;73.242;2023-05-14T11:35:27;29.45;;;17.25;;
64060;SDS011;60147;55.036;73.242;2023-05-14T11:37:53;23.15;;;15.32;;
64060;SDS011;60147;55.036;73.242;2023-05-14T11:40:19;10.13;;;4.40;;
64060;SDS011;60147;55.036;73.242;2023-05-14T11:42:45;9.38;;;4.95;;
64060;SDS011;60147;55.036;73.242;2023-05-14T11:45:11;8.90;;;4.30;;
64060;SDS011;60147;55.036;73.242;2023-05-14T11:47:39;11.98;;;6.28;;
64060;SDS011;60147;55.036;73.242;2023-05-14T11:50:05;20.77;;;10.35;;
64060;SDS011;60147;55.036;73.242;2023-05-14T11:52:37;15.93;;;11.18;;
64060;SDS011;60147;55.036;73.242;2023-05-14T11:55:03;13.05;;;5.97;;
64060;SDS011;60147;55.036;73.242;2023-05-14T11:57:47;11.70;;;6.35;;
64060;SDS011;60147;55.036;73.242;2023-05-14T12:00:13;10.95;;;5.82;;
64060;SDS011;60147;55.036;73.242;2023-05-14T12:02:46;14.93;;;6.32;;
64060;SDS011;60147;55.036;73.242;2023-05-14T12:05:12;13.18;;;4.53;;
64060;SDS011;60147;55.036;73.242;2023-05-14T12:07:38;8.77;;;3.90;;
64060;SDS011;60147;55.036;73.242;2023-05-14T12:10:05;6.95;;;3.63;;
64060;SDS011;60147;55.036;73.242;2023-05-14T12:12:35;7.85;;;4.20;;
64060;SDS011;60147;55.036;73.242;2023-05-14T12:15:01;8.93;;;3.80;;
64060;SDS011;60147;55.036;73.242;2023-05-14T12:17:52;7.15;;;4.30;;
64060;SDS011;60147;55.036;73.242;2023-05-14T12:20:18;5.30;;;3.65;;
64060;SDS011;60147;55.036;73.242;2023-05-14T12:22:44;6.72;;;3.50;;
64060;SDS011;60147;55.036;73.242;2023-05-14T12:25:11;8.95;;;3.88;;
64060;SDS011;60147;55.036;73.242;2023-05-14T12:27:37;7.55;;;3.70;;
64060;SDS011;60147;55.036;73.242;2023-05-14T12:30:22;6.78;;;3.08;;
64060;SDS011;60147;55.036;73.242;2023-05-14T12:35:32;12.95;;;6.78;;
64060;SDS011;60147;55.036;73.242;2023-05-14T12:37:58;22.23;;;10.38;;
64060;SDS011;60147;55.036;73.242;2023-05-14T12:40:23;15.13;;;6.65;;
64060;SDS011;60147;55.036;73.242;2023-05-14T12:42:49;24.15;;;11.07;;
64060;SDS011;60147;55.036;73.242;2023-05-14T12:45:15;19.25;;;8.95;;
64060;SDS011;60147;55.036;73.242;2023-05-14T12:47:42;12.55;;;6.15;;
64060;SDS011;60147;55.036;73.242;2023-05-14T12:52:52;13.95;;;7.35;;
64060;SDS011;60147;55.036;73.242;2023-05-14T12:55:18;10.55;;;4.85;;
64060;SDS011;60147;55.036;73.242;2023-05-14T12:57:44;9.13;;;3.88;;
64060;SDS011;60147;55.036;73.242;2023-05-14T13:00:10;6.22;;;3.22;;
64060;SDS011;60147;55.036;73.242;2023-05-14T13:05:40;12.55;;;4.25;;
64060;SDS011;60147;55.036;73.242;2023-05-14T13:08:06;16.45;;;8.35;;
64060;SDS011;60147;55.036;73.242;2023-05-14T13:10:31;9.00;;;4.53;;
64060;SDS011;60147;55.036;73.242;2023-05-14T13:12:58;10.50;;;4.20;;
64060;SDS011;60147;55.036;73.242;2023-05-14T13:15:23;8.88;;;3.63;;
64060;SDS011;60147;55.036;73.242;2023-05-14T13:17:49;7.10;;;3.70;;
64060;SDS011;60147;55.036;73.242;2023-05-14T13:20:16;7.22;;;3.58;;
64060;SDS011;60147;55.036;73.242;2023-05-14T13:22:42;17.73;;;7.10;;
64060;SDS011;60147;55.036;73.242;2023-05-14T13:25:08;15.57;;;5.40;;
64060;SDS011;60147;55.036;73.242;2023-05-14T13:27:53;7.25;;;3.20;;
64060;SDS011;60147;55.036;73.242;2023-05-14T13:30:19;7.03;;;3.50;;
64060;SDS011;60147;55.036;73.242;2023-05-14T13:33:04;6.78;;;2.75;;
64060;SDS011;60147;55.036;73.242;2023-05-14T13:35:30;10.10;;;2.95;;
64060;SDS011;60147;55.036;73.242;2023-05-14T13:40:40;10.73;;;3.60;;
64060;SDS011;60147;55.036;73.242;2023-05-14T13:43:06;9.77;;;3.10;;
64060;SDS011;60147;55.036;73.242;2023-05-14T13:45:32;7.05;;;2.58;;
64060;SDS011;60147;55.036;73.242;2023-05-14T13:51:02;8.13;;;3.83;;
64060;SDS011;60147;55.036;73.242;2023-05-14T13:53:28;8.75;;;3.28;;
64060;SDS011;60147;55.036;73.242;2023-05-14T13:58:57;9.05;;;4.28;;
64060;SDS011;60147;55.036;73.242;2023-05-14T14:01:23;5.30;;;2.70;;
64060;SDS011;60147;55.036;73.242;2023-05-14T14:04:08;10.23;;;4.65;;
64060;SDS011;60147;55.036;73.242;2023-05-14T14:06:34;19.67;;;7.60;;
64060;SDS011;60147;55.036;73.242;2023-05-14T14:08:59;14.70;;;6.63;;
64060;SDS011;60147;55.036;73.242;2023-05-14T14:11:25;12.32;;;6.57;;
64060;SDS011;60147;55.036;73.242;2023-05-14T14:14:10;12.20;;;6.38;;
64060;SDS011;60147;55.036;73.242;2023-05-14T14:16:36;21.60;;;10.30;;
64060;SDS011;60147;55.036;73.242;2023-05-14T14:19:02;25.08;;;10.88;;
64060;SDS011;60147;55.036;73.242;2023-05-14T14:21:28;24.77;;;10.10;;
64060;SDS011;60147;55.036;73.242;2023-05-14T14:24:12;15.60;;;7.00;;
64060;SDS011;60147;55.036;73.242;2023-05-14T14:26:38;13.80;;;6.35;;
64060;SDS011;60147;55.036;73.242;2023-05-14T14:29:04;9.30;;;5.07;;
64060;SDS011;60147;55.036;73.242;2023-05-14T14:31:30;11.60;;;5.32;;
64060;SDS011;60147;55.036;73.242;2023-05-14T14:33:56;10.55;;;5.10;;
64060;SDS011;60147;55.036;73.242;2023-05-14T14:36:21;8.73;;;5.15;;
64060;SDS011;60147;55.036;73.242;2023-05-14T14:38:47;33.80;;;14.52;;
64060;SDS011;60147;55.036;73.242;2023-05-14T14:41:13;37.75;;;15.13;;
64060;SDS011;60147;55.036;73.242;2023-05-14T14:43:39;44.67;;;17.60;;
64060;SDS011;60147;55.036;73.242;2023-05-14T14:46:05;54.53;;;19.42;;
64060;SDS011;60147;55.036;73.242;2023-05-14T14:48:34;52.90;;;21.10;;
64060;SDS011;60147;55.036;73.242;2023-05-14T14:51:06;59.65;;;22.55;;
64060;SDS011;60147;55.036;73.242;2023-05-14T14:53:50;52.22;;;21.42;;
64060;SDS011;60147;55.036;73.242;2023-05-14T14:56:16;48.17;;;20.48;;
64060;SDS011;60147;55.036;73.242;2023-05-14T14:58:42;46.05;;;19.02;;
64060;SDS011;60147;55.036;73.242;2023-05-14T15:01:26;41.50;;;15.32;;
64060;SDS011;60147;55.036;73.242;2023-05-14T15:03:52;30.05;;;12.73;;
64060;SDS011;60147;55.036;73.242;2023-05-14T15:06:18;61.28;;;20.05;;
64060;SDS011;60147;55.036;73.242;2023-05-14T15:08:44;50.55;;;14.88;;
64060;SDS011;60147;55.036;73.242;2023-05-14T15:11:10;48.70;;;16.73;;
64060;SDS011;60147;55.036;73.242;2023-05-14T15:13:36;46.10;;;17.98;;
64060;SDS011;60147;55.036;73.242;2023-05-14T15:18:46;74.57;;;21.38;;
64060;SDS011;60147;55.036;73.242;2023-05-14T15:27:00;55.33;;;16.10;;
64060;SDS011;60147;55.036;73.242;2023-05-14T15:29:26;63.95;;;19.10;;
64060;SDS011;60147;55.036;73.242;2023-05-14T15:31:53;56.72;;;19.95;;
64060;SDS011;60147;55.036;73.242;2023-05-14T15:34:37;60.40;;;19.02;;
64060;SDS011;60147;55.036;73.242;2023-05-14T15:37:03;74.93;;;27.35;;
64060;SDS011;60147;55.036;73.242;2023-05-14T15:39:47;88.20;;;29.13;;
64060;SDS011;60147;55.036;73.242;2023-05-14T15:42:13;63.03;;;24.33;;
64060;SDS011;60147;55.036;73.242;2023-05-14T15:44:39;70.97;;;27.33;;
64060;SDS011;60147;55.036;73.242;2023-05-14T15:47:05;65.25;;;25.73;;
64060;SDS011;60147;55.036;73.242;2023-05-14T15:49:49;68.78;;;25.10;;
64060;SDS011;60147;55.036;73.242;2023-05-14T15:52:15;78.20;;;23.00;;
64060;SDS011;60147;55.036;73.242;2023-05-14T15:54:41;53.80;;;19.25;;
64060;SDS011;60147;55.036;73.242;2023-05-14T15:57:09;49.63;;;19.15;;
64060;SDS011;60147;55.036;73.242;2023-05-14T15:59:35;52.70;;;23.02;;
64060;SDS011;60147;55.036;73.242;2023-05-14T16:02:01;60.63;;;19.55;;
64060;SDS011;60147;55.036;73.242;2023-05-14T16:04:45;44.70;;;19.27;;
64060;SDS011;60147;55.036;73.242;2023-05-14T16:07:30;47.75;;;19.13;;
64060;SDS011;60147;55.036;73.242;2023-05-14T16:09:55;51.85;;;21.60;;
64060;SDS011;60147;55.036;73.242;2023-05-14T16:15:06;47.42;;;19.88;;
64060;SDS011;60147;55.036;73.242;2023-05-14T16:17:32;59.10;;;22.75;;
64060;SDS011;60147;55.036;73.242;2023-05-14T16:20:17;65.80;;;25.63;;
64060;SDS011;60147;55.036;73.242;2023-05-14T16:22:42;60.90;;;29.35;;
64060;SDS011;60147;55.036;73.242;2023-05-14T16:25:09;50.40;;;24.20;;
64060;SDS011;60147;55.036;73.242;2023-05-14T16:27:35;60.05;;;27.40;;
64060;SDS011;60147;55.036;73.242;2023-05-14T16:30:01;77.30;;;29.27;;
64060;SDS011;60147;55.036;73.242;2023-05-14T16:32:45;54.67;;;25.40;;
64060;SDS011;60147;55.036;73.242;2023-05-14T16:35:14;61.83;;;27.50;;
64060;SDS011;60147;55.036;73.242;2023-05-14T16:37:40;67.38;;;29.88;;
64060;SDS011;60147;55.036;73.242;2023-05-14T16:40:06;72.53;;;30.13;;
64060;SDS011;60147;55.036;73.242;2023-05-14T16:42:33;75.85;;;31.27;;
64060;SDS011;60147;55.036;73.242;2023-05-14T16:44:59;81.50;;;31.33;;
64060;SDS011;60147;55.036;73.242;2023-05-14T16:47:25;99.85;;;33.05;;
64060;SDS011;60147;55.036;73.242;2023-05-14T16:49:51;80.20;;;28.02;;
64060;SDS011;60147;55.036;73.242;2023-05-14T16:52:35;61.53;;;28.42;;
64060;SDS011;60147;55.036;73.242;2023-05-14T16:55:01;63.67;;;25.05;;
64060;SDS011;60147;55.036;73.242;2023-05-14T16:57:27;60.60;;;25.17;;
64060;SDS011;60147;55.036;73.242;2023-05-14T16:59:53;47.45;;;24.05;;
64060;SDS011;60147;55.036;73.242;2023-05-14T17:02:19;60.63;;;24.80;;
64060;SDS011;60147;55.036;73.242;2023-05-14T17:04:58;50.70;;;22.63;;
64060;SDS011;60147;55.036;73.242;2023-05-14T17:07:24;43.92;;;22.15;;
64060;SDS011;60147;55.036;73.242;2023-05-14T17:09:50;47.35;;;21.15;;
64060;SDS011;60147;55.036;73.242;2023-05-14T17:12:16;43.42;;;20.75;;
64060;SDS011;60147;55.036;73.242;2023-05-14T17:14:41;41.83;;;21.05;;
64060;SDS011;60147;55.036;73.242;2023-05-14T17:17:07;40.45;;;20.40;;
64060;SDS011;60147;55.036;73.242;2023-05-14T17:19:33;36.83;;;19.20;;
64060;SDS011;60147;55.036;73.242;2023-05-14T17:21:59;46.33;;;20.23;;
64060;SDS011;60147;55.036;73.242;2023-05-14T17:24:25;37.55;;;18.80;;
64060;SDS011;60147;55.036;73.242;2023-05-14T17:27:09;38.85;;;18.45;;
64060;SDS011;60147;55.036;73.242;2023-05-14T17:29:53;39.58;;;18.50;;
64060;SDS011;60147;55.036;73.242;2023-05-14T17:32:38;37.03;;;18.40;;
64060;SDS011;60147;55.036;73.242;2023-05-14T17:35:04;32.72;;;17.52;;
64060;SDS011;60147;55.036;73.242;2023-05-14T17:37:30;33.53;;;16.17;;
64060;SDS011;60147;55.036;73.242;2023-05-14T17:39:56;38.67;;;17.23;;
64060;SDS011;60147;55.036;73.242;2023-05-14T17:42:22;32.25;;;16.38;;
64060;SDS011;60147;55.036;73.242;2023-05-14T17:44:48;31.17;;;15.80;;
64060;SDS011;60147;55.036;73.242;2023-05-14T17:47:14;36.13;;;15.20;;
64060;SDS011;60147;55.036;73.242;2023-05-14T17:49:58;34.17;;;15.02;;
64060;SDS011;60147;55.036;73.242;2023-05-14T17:52:24;29.60;;;14.32;;
64060;SDS011;60147;55.036;73.242;2023-05-14T17:55:27;29.15;;;14.68;;
64060;SDS011;60147;55.036;73.242;2023-05-14T17:57:53;26.60;;;13.85;;
64060;SDS011;60147;55.036;73.242;2023-05-14T18:00:19;25.77;;;13.27;;
64060;SDS011;60147;55.036;73.242;2023-05-14T18:05:29;27.27;;;13.73;;
64060;SDS011;60147;55.036;73.242;2023-05-14T18:07:56;24.77;;;14.10;;
64060;SDS011;60147;55.036;73.242;2023-05-14T18:10:23;25.98;;;13.27;;
64060;SDS011;60147;55.036;73.242;2023-05-14T18:13:07;36.25;;;13.82;;
64060;SDS011;60147;55.036;73.242;2023-05-14T18:15:34;30.25;;;13.52;;
64060;SDS011;60147;55.036;73.242;2023-05-14T18:18:00;33.47;;;14.73;;
64060;SDS011;60147;55.036;73.242;2023-05-14T18:20:26;38.53;;;16.15;;
64060;SDS011;60147;55.036;73.242;2023-05-14T18:22:52;34.83;;;15.18;;
64060;SDS011;60147;55.036;73.242;2023-05-14T18:25:18;36.28;;;14.90;;
64060;SDS011;60147;55.036;73.242;2023-05-14T18:27:44;36.97;;;16.13;;
64060;SDS011;60147;55.036;73.242;2023-05-14T18:33:14;40.83;;;17.10;;
64060;SDS011;60147;55.036;73.242;2023-05-14T18:35:40;38.20;;;16.63;;
64060;SDS011;60147;55.036;73.242;2023-05-14T18:38:08;37.00;;;16.27;;
64060;SDS011;60147;55.036;73.242;2023-05-14T18:40:35;40.95;;;16.58;;
64060;SDS011;60147;55.036;73.242;2023-05-14T18:43:01;42.75;;;17.17;;
64060;SDS011;60147;55.036;73.242;2023-05-14T18:45:27;42.35;;;15.93;;
64060;SDS011;60147;55.036;73.242;2023-05-14T18:47:53;51.25;;;16.25;;
64060;SDS011;60147;55.036;73.242;2023-05-14T18:50:19;36.55;;;15.32;;
64060;SDS011;60147;55.036;73.242;2023-05-14T18:52:45;41.55;;;15.80;;
64060;SDS011;60147;55.036;73.242;2023-05-14T18:55:11;38.97;;;16.35;;
64060;SDS011;60147;55.036;73.242;2023-05-14T18:57:37;39.45;;;16.25;;
64060;SDS011;60147;55.036;73.242;2023-05-14T19:00:03;36.92;;;15.63;;
64060;SDS011;60147;55.036;73.242;2023-05-14T19:02:47;40.05;;;15.82;;
64060;SDS011;60147;55.036;73.242;2023-05-14T19:05:13;32.03;;;15.32;;
64060;SDS011;60147;55.036;73.242;2023-05-14T19:07:39;33.17;;;14.13;;
64060;SDS011;60147;55.036;73.242;2023-05-14T19:10:24;31.92;;;13.93;;
64060;SDS011;60147;55.036;73.242;2023-05-14T19:13:08;36.75;;;13.25;;
64060;SDS011;60147;55.036;73.242;2023-05-14T19:15:34;28.52;;;14.73;;
64060;SDS011;60147;55.036;73.242;2023-05-14T19:18:00;34.70;;;13.55;;
64060;SDS011;60147;55.036;73.242;2023-05-14T19:20:26;29.48;;;13.15;;
64060;SDS011;60147;55.036;73.242;2023-05-14T19:23:11;28.55;;;12.68;;
64060;SDS011;60147;55.036;73.242;2023-05-14T19:25:37;26.60;;;12.68;;
64060;SDS011;60147;55.036;73.242;2023-05-14T19:28:02;30.88;;;13.40;;
64060;SDS011;60147;55.036;73.242;2023-05-14T19:30:29;28.27;;;13.32;;
64060;SDS011;60147;55.036;73.242;2023-05-14T19:32:55;26.67;;;13.02;;
64060;SDS011;60147;55.036;73.242;2023-05-14T19:35:39;28.42;;;12.98;;
64060;SDS011;60147;55.036;73.242;2023-05-14T19:40:50;25.48;;;11.75;;
64060;SDS011;60147;55.036;73.242;2023-05-14T19:43:19;24.27;;;11.98;;
64060;SDS011;60147;55.036;73.242;2023-05-14T19:45:45;22.80;;;12.05;;
64060;SDS011;60147;55.036;73.242;2023-05-14T19:50:56;23.13;;;10.80;;
64060;SDS011;60147;55.036;73.242;2023-05-14T19:53:22;19.63;;;11.23;;
64060;SDS011;60147;55.036;73.242;2023-05-14T19:55:55;22.33;;;10.73;;
64060;SDS011;60147;55.036;73.242;2023-05-14T19:58:21;21.38;;;11.70;;
64060;SDS011;60147;55.036;73.242;2023-05-14T20:00:47;21.10;;;11.48;;
64060;SDS011;60147;55.036;73.242;2023-05-14T20:03:15;20.42;;;11.40;;
64060;SDS011;60147;55.036;73.242;2023-05-14T20:05:42;19.92;;;11.02;;
64060;SDS011;60147;55.036;73.242;2023-05-14T20:10:54;22.50;;;11.30;;
64060;SDS011;60147;55.036;73.242;2023-05-14T20:13:20;24.55;;;11.25;;
64060;SDS011;60147;55.036;73.242;2023-05-14T20:15:46;22.70;;;11.32;;
64060;SDS011;60147;55.036;73.242;2023-05-14T20:18:12;19.08;;;11.45;;
64060;SDS011;60147;55.036;73.242;2023-05-14T20:20:38;27.70;;;12.23;;
64060;SDS011;60147;55.036;73.242;2023-05-14T20:23:05;21.48;;;11.70;;
64060;SDS011;60147;55.036;73.242;2023-05-14T20:25:31;26.77;;;13.18;;
64060;SDS011;60147;55.036;73.242;2023-05-14T20:27:57;25.02;;;12.18;;
64060;SDS011;60147;55.036;73.242;2023-05-14T20:30:24;21.85;;;12.95;;
64060;SDS011;60147;55.036;73.242;2023-05-14T20:32:50;26.13;;;13.07;;
64060;SDS011;60147;55.036;73.242;2023-05-14T20:35:16;27.70;;;14.23;;
64060;SDS011;60147;55.036;73.242;2023-05-14T20:38:01;27.67;;;15.52;;
64060;SDS011;60147;55.036;73.242;2023-05-14T20:40:28;26.48;;;13.18;;
64060;SDS011;60147;55.036;73.242;2023-05-14T20:42:55;24.15;;;14.73;;
64060;SDS011;60147;55.036;73.242;2023-05-14T20:48:25;23.25;;;14.55;;
64060;SDS011;60147;55.036;73.242;2023-05-14T20:53:54;23.33;;;14.18;;
64060;SDS011;60147;55.036;73.242;2023-05-14T20:56:38;24.75;;;15.07;;
64060;SDS011;60147;55.036;73.242;2023-05-14T20:59:04;31.75;;;15.35;;
64060;SDS011;60147;55.036;73.242;2023-05-14T21:01:48;28.75;;;14.85;;
64060;SDS011;60147;55.036;73.242;2023-05-14T21:04:14;29.15;;;14.93;;
64060;SDS011;60147;55.036;73.242;2023-05-14T21:06:40;31.25;;;16.20;;
64060;SDS011;60147;55.036;73.242;2023-05-14T21:09:05;30.73;;;15.07;;
64060;SDS011;60147;55.036;73.242;2023-05-14T21:11:31;25.15;;;15.50;;
64060;SDS011;60147;55.036;73.242;2023-05-14T21:13:57;28.27;;;15.00;;
64060;SDS011;60147;55.036;73.242;2023-05-14T21:16:41;36.58;;;15.52;;
64060;SDS011;60147;55.036;73.242;2023-05-14T21:19:07;25.20;;;15.10;;
64060;SDS011;60147;55.036;73.242;2023-05-14T21:21:33;27.73;;;15.65;;
64060;SDS011;60147;55.036;73.242;2023-05-14T21:23:59;30.65;;;15.27;;
64060;SDS011;60147;55.036;73.242;2023-05-14T21:29:09;31.40;;;15.32;;
64060;SDS011;60147;55.036;73.242;2023-05-14T21:31:35;28.40;;;15.48;;
64060;SDS011;60147;55.036;73.242;2023-05-14T21:34:20;24.42;;;14.82;;
64060;SDS011;60147;55.036;73.242;2023-05-14T21:36:45;32.08;;;15.82;;
64060;SDS011;60147;55.036;73.242;2023-05-14T21:39:12;27.30;;;15.65;;
64060;SDS011;60147;55.036;73.242;2023-05-14T21:41:38;25.95;;;15.23;;
64060;SDS011;60147;55.036;73.242;2023-05-14T21:44:04;28.10;;;15.43;;
64060;SDS011;60147;55.036;73.242;2023-05-14T21:46:30;26.13;;;16.05;;
64060;SDS011;60147;55.036;73.242;2023-05-14T21:48:56;28.63;;;16.30;;
64060;SDS011;60147;55.036;73.242;2023-05-14T21:51:22;24.25;;;15.80;;
64060;SDS011;60147;55.036;73.242;2023-05-14T21:53:48;26.58;;;15.77;;
64060;SDS011;60147;55.036;73.242;2023-05-14T21:56:14;27.60;;;16.33;;
64060;SDS011;60147;55.036;73.242;2023-05-14T21:58:40;30.48;;;15.82;;
64060;SDS011;60147;55.036;73.242;2023-05-14T22:01:06;30.90;;;16.33;;
64060;SDS011;60147;55.036;73.242;2023-05-14T22:03:33;25.50;;;16.85;;
64060;SDS011;60147;55.036;73.242;2023-05-14T22:06:00;34.17;;;17.33;;
64060;SDS011;60147;55.036;73.242;2023-05-14T22:08:26;27.55;;;17.20;;
64060;SDS011;60147;55.036;73.242;2023-05-14T22:10:54;29.27;;;16.73;;
64060;SDS011;60147;55.036;73.242;2023-05-14T22:13:20;30.33;;;16.63;;
64060;SDS011;60147;55.036;73.242;2023-05-14T22:16:05;25.63;;;16.95;;
64060;SDS011;60147;55.036;73.242;2023-05-14T22:24:00;29.58;;;18.15;;
64060;SDS011;60147;55.036;73.242;2023-05-14T22:26:26;32.28;;;18.45;;
64060;SDS011;60147;55.036;73.242;2023-05-14T22:28:52;35.00;;;18.92;;
64060;SDS011;60147;55.036;73.242;2023-05-14T22:31:36;28.55;;;18.35;;
64060;SDS011;60147;55.036;73.242;2023-05-14T22:34:02;33.78;;;19.50;;
64060;SDS011;60147;55.036;73.242;2023-05-14T22:36:28;32.25;;;19.25;;
64060;SDS011;60147;55.036;73.242;2023-05-14T22:38:54;30.92;;;19.60;;
64060;SDS011;60147;55.036;73.242;2023-05-14T22:44:04;33.58;;;18.80;;
64060;SDS011;60147;55.036;73.242;2023-05-14T22:46:30;29.70;;;18.83;;
64060;SDS011;60147;55.036;73.242;2023-05-14T22:48:56;30.63;;;19.35;;
64060;SDS011;60147;55.036;73.242;2023-05-14T22:51:22;30.50;;;19.80;;
64060;SDS011;60147;55.036;73.242;2023-05-14T22:53:48;37.60;;;21.02;;
64060;SDS011;60147;55.036;73.242;2023-05-14T22:58:58;43.15;;;21.15;;
64060;SDS011;60147;55.036;73.242;2023-05-14T23:01:27;35.20;;;19.90;;
64060;SDS011;60147;55.036;73.242;2023-05-14T23:06:37;36.05;;;20.52;;
64060;SDS011;60147;55.036;73.242;2023-05-14T23:09:03;39.72;;;21.20;;
64060;SDS011;60147;55.036;73.242;2023-05-14T23:14:14;39.85;;;23.05;;
64060;SDS011;60147;55.036;73.242;2023-05-14T23:16:42;35.65;;;21.20;;
64060;SDS011;60147;55.036;73.242;2023-05-14T23:19:08;40.53;;;21.40;;
64060;SDS011;60147;55.036;73.242;2023-05-14T23:21:33;39.90;;;21.40;;
64060;SDS011;60147;55.036;73.242;2023-05-14T23:24:18;36.55;;;21.50;;
64060;SDS011;60147;55.036;73.242;2023-05-14T23:27:02;40.97;;;22.10;;
64060;SDS011;60147;55.036;73.242;2023-05-14T23:29:28;41.35;;;22.42;;
64060;SDS011;60147;55.036;73.242;2023-05-14T23:32:12;36.40;;;21.73;;
64060;SDS011;60147;55.036;73.242;2023-05-14T23:34:38;43.42;;;22.92;;
64060;SDS011;60147;55.036;73.242;2023-05-14T23:37:22;50.83;;;23.23;;
64060;SDS011;60147;55.036;73.242;2023-05-14T23:39:49;50.28;;;23.77;;
64060;SDS011;60147;55.036;73.242;2023-05-14T23:45:00;73.57;;;27.00;;
64060;SDS011;60147;55.036;73.242;2023-05-14T23:47:26;67.53;;;27.23;;